KLNK/LNK METAR and TAF weather

Enter ICAO airport designator
Station Type Date Time Source
KLNK METAR 2020/09/26 20:54 UTC NOAA

KLNK 262054Z 24012KT 10SM CLR 34/11 A2957 RMK AO2 SLP000 T03390106 56008


Station Type Date Time Source
KLNK Decoded METAR 2020/09/26 20:54 UTC NOAA

LINCOLN MUNICIPAL AIRPORT, NE, United States (KLNK) 40-50N 96-46W 364M
Sep 26, 2020 - 04:54 PM EDT / 2020.09.26 2054 UTC
Wind: from the WSW (240 degrees) at 14 MPH (12 KT):0
Visibility: 10 mile(s):0
Sky conditions: clear
Temperature: 93.0 F (33.9 C)
Dew Point: 51.1 F (10.6 C)
Relative Humidity: 24%
Pressure (altimeter): 29.57 in. Hg (1001 hPa)
Pressure tendency: 0.02 inches (0.8 hPa) lower than three hours ago
ob: KLNK 262054Z 24012KT 10SM CLR 34/11 A2957 RMK AO2 SLP000 T03390106 56008
cycle: 21

Station Type Date Time Source
KLNK TAF 2020/09/26 18:22 UTC NOAA

TAF KLNK 261720Z 2618/2718 23018G26KT P6SM SCT150 BKN250
FM262200 25015G24KT P6SM SCT150 BKN250
FM270100 30010KT P6SM BKN250
FM270200 33009KT P6SM SCT150 BKN250
FM270800 35009KT P6SM BKN100 PROB30 2711/2716 6SM -SHRA

Example: see airport list